createdAt,value
2022-12-19T00:00:50.923Z,13.10
2022-12-19T00:06:04.862Z,15.60
2022-12-19T00:11:08.114Z,11.50
2022-12-19T00:16:18.931Z,13.50
2022-12-19T00:21:25.033Z,12.80
2022-12-19T00:26:30.771Z,12.60
2022-12-19T00:31:36.335Z,14.70
2022-12-19T00:36:39.784Z,14.90
2022-12-19T00:41:43.465Z,13.60
2022-12-19T00:46:52.748Z,13.40
2022-12-19T00:51:58.131Z,12.60
2022-12-19T00:57:01.339Z,11.30
2022-12-19T01:02:04.611Z,11.80
2022-12-19T01:07:08.470Z,12.70
2022-12-19T01:12:30.805Z,16.10
2022-12-19T01:17:44.169Z,16.30
2022-12-19T01:22:50.795Z,15.40
2022-12-19T01:27:55.308Z,14.80
2022-12-19T01:32:59.756Z,14.20
2022-12-19T01:38:07.882Z,15.00
2022-12-19T01:43:15.041Z,15.10
2022-12-19T01:48:44.059Z,16.50
2022-12-19T01:53:57.095Z,20.20
2022-12-19T01:59:07.049Z,20.00
2022-12-19T02:04:13.977Z,17.80
2022-12-19T02:09:17.845Z,16.00
2022-12-19T02:14:21.481Z,16.00
2022-12-19T02:19:49.862Z,13.80
2022-12-19T02:25:11.881Z,15.20
2022-12-19T02:30:37.852Z,14.80
2022-12-19T02:35:47.282Z,16.10
2022-12-19T02:41:19.033Z,17.10
2022-12-19T02:51:27.789Z,16.40
2022-12-19T02:56:47.716Z,15.10
2022-12-19T03:02:04.417Z,15.50
2022-12-19T03:07:22.971Z,14.20
2022-12-19T03:13:19.103Z,15.10
2022-12-19T03:18:24.413Z,13.80
2022-12-19T03:23:29.156Z,14.30
2022-12-19T03:29:04.089Z,13.20
2022-12-19T03:34:22.189Z,14.00
2022-12-19T03:39:27.015Z,16.20
2022-12-19T03:44:35.244Z,16.00
2022-12-19T03:49:38.884Z,15.40
2022-12-19T03:54:50.494Z,14.90
2022-12-19T04:00:11.339Z,15.10
2022-12-19T04:05:26.779Z,14.30
2022-12-19T04:10:30.713Z,14.60
2022-12-19T04:15:56.383Z,15.80
2022-12-19T04:21:06.845Z,14.40
2022-12-19T04:26:12.066Z,14.60
2022-12-19T04:31:16.694Z,14.30
2022-12-19T04:36:19.972Z,15.20
2022-12-19T04:41:23.084Z,15.10
2022-12-19T04:46:26.180Z,15.30
2022-12-19T04:51:29.328Z,14.30
2022-12-19T04:56:32.423Z,14.90
2022-12-19T05:01:35.620Z,14.60
2022-12-19T05:06:38.804Z,15.40
2022-12-19T05:11:41.968Z,15.70
2022-12-19T05:16:45.085Z,16.80
2022-12-19T05:21:48.212Z,15.50
2022-12-19T05:26:51.464Z,16.40
2022-12-19T05:31:54.566Z,14.40
2022-12-19T05:36:57.681Z,15.80
2022-12-19T05:42:01.267Z,16.50
2022-12-19T05:47:04.503Z,16.60
2022-12-19T05:52:07.573Z,15.70
2022-12-19T05:57:11.330Z,16.70
2022-12-19T06:02:14.496Z,16.40
2022-12-19T06:07:20.847Z,17.40
2022-12-19T06:12:24.696Z,17.90
2022-12-19T06:17:27.848Z,17.70
2022-12-19T06:22:31.671Z,17.10
2022-12-19T06:27:34.924Z,18.70
2022-12-19T06:32:38.525Z,17.80
2022-12-19T06:37:41.755Z,18.50
2022-12-19T06:42:47.743Z,17.70
2022-12-19T06:47:50.879Z,18.40
2022-12-19T06:52:54.112Z,17.30
2022-12-19T06:57:57.226Z,18.90
2022-12-19T07:03:01.008Z,17.90
2022-12-19T07:08:05.109Z,17.80
2022-12-19T07:13:08.221Z,19.70
2022-12-19T07:18:11.435Z,15.60
2022-12-19T07:23:18.809Z,18.50
2022-12-19T07:28:22.107Z,19.00
2022-12-19T07:33:25.288Z,18.30
2022-12-19T07:38:28.587Z,18.60
2022-12-19T07:43:31.817Z,18.40
2022-12-19T07:48:34.977Z,17.90
2022-12-19T07:53:38.090Z,19.20
2022-12-19T07:58:41.689Z,19.80
2022-12-19T08:03:44.935Z,20.00
2022-12-19T08:08:48.448Z,17.00
2022-12-19T08:13:51.581Z,16.90
2022-12-19T08:18:55.887Z,17.00
2022-12-19T08:24:00.620Z,18.70
2022-12-19T08:29:04.375Z,18.50
2022-12-19T08:34:07.517Z,17.40
2022-12-19T08:39:11.712Z,18.80
2022-12-19T08:44:15.620Z,19.30
2022-12-19T08:49:19.653Z,18.80
2022-12-19T08:54:23.043Z,17.00
2022-12-19T08:59:31.147Z,19.60
2022-12-19T09:05:03.643Z,18.40
2022-12-19T09:10:00.395Z,17.40
2022-12-19T09:15:04.022Z,16.70
2022-12-19T09:20:07.691Z,18.80
2022-12-19T09:25:11.218Z,19.70
2022-12-19T09:30:14.461Z,18.60
2022-12-19T09:35:17.622Z,18.60
2022-12-19T09:40:20.933Z,18.30
2022-12-19T09:45:41.404Z,17.80
2022-12-19T09:51:09.717Z,17.20
2022-12-19T09:56:16.193Z,18.40
2022-12-19T10:01:26.495Z,18.70
2022-12-19T10:07:11.013Z,19.70
2022-12-19T10:12:43.864Z,19.30
2022-12-19T10:18:18.178Z,18.90
2022-12-19T10:24:10.167Z,12.90
2022-12-19T10:29:45.216Z,19.10
2022-12-19T10:34:53.227Z,16.20
2022-12-19T10:40:27.781Z,16.40
2022-12-19T10:45:38.994Z,15.60
2022-12-19T10:50:43.720Z,16.60
2022-12-19T10:55:49.998Z,16.50
2022-12-19T11:01:05.468Z,21.10
2022-12-19T11:06:37.729Z,16.30
2022-12-19T11:12:43.400Z,12.30
2022-12-19T11:25:01.787Z,17.60
2022-12-19T11:29:42.410Z,15.80
2022-12-19T11:30:41.366Z,16.50
2022-12-19T11:33:18.909Z,16.00
2022-12-19T11:38:37.857Z,16.20
2022-12-19T11:43:56.696Z,17.00
2022-12-19T11:49:24.715Z,17.00
2022-12-19T11:54:40.139Z,15.70
2022-12-19T11:59:43.288Z,19.30
2022-12-19T12:05:04.570Z,17.50
2022-12-19T12:16:10.774Z,15.00
2022-12-19T12:26:55.069Z,14.30
2022-12-19T12:31:27.995Z,16.00
2022-12-19T12:32:05.063Z,15.10
2022-12-19T12:35:51.509Z,16.90
2022-12-19T12:39:20.955Z,15.80
2022-12-19T12:44:33.371Z,17.60
2022-12-19T12:49:46.083Z,18.30
2022-12-19T12:54:50.675Z,17.00
2022-12-19T13:00:24.943Z,17.00
2022-12-19T13:05:46.347Z,16.60
2022-12-19T13:10:59.582Z,15.80
2022-12-19T13:16:41.553Z,15.00
2022-12-19T13:22:03.853Z,15.70
2022-12-19T13:27:19.095Z,15.30
2022-12-19T13:32:23.951Z,14.60
2022-12-19T13:39:59.349Z,14.30
2022-12-19T13:43:25.050Z,15.20
2022-12-19T13:53:55.907Z,20.90
2022-12-19T13:59:04.842Z,18.40
2022-12-19T14:04:22.576Z,18.80
2022-12-19T14:11:29.237Z,18.30
2022-12-19T14:15:16.337Z,17.90
2022-12-19T14:22:01.774Z,17.30
2022-12-19T14:28:26.361Z,17.60
2022-12-19T14:31:19.646Z,19.40
2022-12-19T14:36:27.812Z,18.80
2022-12-19T14:42:03.983Z,20.30
2022-12-19T14:51:51.680Z,19.20
2022-12-19T14:54:31.032Z,15.80
2022-12-19T14:58:55.580Z,18.90
2022-12-19T15:04:51.396Z,20.30
2022-12-19T15:11:06.500Z,21.10
2022-12-19T15:15:06.883Z,18.00
2022-12-19T15:20:11.495Z,19.40
2022-12-19T15:25:43.955Z,19.40
2022-12-19T15:30:42.460Z,19.60
2022-12-19T15:35:45.610Z,21.60
2022-12-19T15:40:49.257Z,20.90
2022-12-19T15:45:59.306Z,20.00
2022-12-19T15:51:02.434Z,19.80
2022-12-19T15:56:10.863Z,20.80
2022-12-19T16:01:14.118Z,20.00
2022-12-19T16:06:17.265Z,19.70
2022-12-19T16:11:23.755Z,18.70
2022-12-19T16:16:27.012Z,19.50
2022-12-19T16:21:34.227Z,23.50
2022-12-19T16:26:40.565Z,21.50
2022-12-19T16:31:43.725Z,20.90
2022-12-19T16:36:46.980Z,21.70
2022-12-19T16:41:50.563Z,21.60
2022-12-19T16:46:53.769Z,22.30
2022-12-19T16:51:56.931Z,22.50
2022-12-19T16:57:00.563Z,24.00
2022-12-19T17:02:38.524Z,23.70
2022-12-19T17:07:42.097Z,22.60
2022-12-19T17:12:46.273Z,20.90
2022-12-19T17:17:49.948Z,22.20
2022-12-19T17:22:53.418Z,21.70
2022-12-19T17:27:56.755Z,22.90
2022-12-19T17:32:59.869Z,25.40
2022-12-19T17:38:04.024Z,23.60
2022-12-19T17:43:08.199Z,24.40
2022-12-19T17:48:28.272Z,25.00
2022-12-19T17:53:31.469Z,26.40
2022-12-19T17:58:34.700Z,27.40
2022-12-19T18:03:37.908Z,23.60
2022-12-19T18:08:41.274Z,24.40
2022-12-19T18:13:44.812Z,25.90
2022-12-19T18:18:48.096Z,25.00
2022-12-19T18:23:51.334Z,24.80
2022-12-19T18:28:54.784Z,25.20
2022-12-19T18:34:07.005Z,25.20
2022-12-19T18:39:32.269Z,25.20
2022-12-19T18:44:35.427Z,26.50
2022-12-19T18:49:38.564Z,31.80
2022-12-19T18:54:43.437Z,31.50
2022-12-19T18:59:48.741Z,29.80
2022-12-19T19:04:53.543Z,29.90
2022-12-19T19:09:56.977Z,27.10
2022-12-19T19:15:22.211Z,27.40
2022-12-19T19:20:27.952Z,27.50
2022-12-19T19:25:32.143Z,25.40
2022-12-19T19:30:37.829Z,24.60
2022-12-19T19:35:45.024Z,25.90
2022-12-19T19:40:48.198Z,26.20
2022-12-19T19:45:51.335Z,25.50
2022-12-19T19:50:54.609Z,25.30
2022-12-19T19:56:00.872Z,25.90
2022-12-19T20:01:12.126Z,31.00
2022-12-19T20:06:15.371Z,32.20
2022-12-19T20:11:18.548Z,26.90
2022-12-19T20:16:21.773Z,27.30
2022-12-19T20:21:25.052Z,30.00
2022-12-19T20:26:28.276Z,37.10
2022-12-19T20:31:32.580Z,34.70
2022-12-19T20:36:35.930Z,32.20
2022-12-19T20:41:39.061Z,35.00
2022-12-19T20:46:42.263Z,26.60
2022-12-19T20:51:47.828Z,30.10
2022-12-19T20:56:51.721Z,29.40
2022-12-19T21:01:56.572Z,26.70
2022-12-19T21:06:59.837Z,25.70
2022-12-19T21:12:03.469Z,26.20
2022-12-19T21:17:06.752Z,25.20
2022-12-19T21:22:09.894Z,25.80
2022-12-19T21:27:13.127Z,24.70
2022-12-19T21:32:19.063Z,25.90
2022-12-19T21:37:24.395Z,23.30
2022-12-19T21:42:27.670Z,28.30
2022-12-19T21:47:30.849Z,28.90
2022-12-19T21:52:33.980Z,26.60
2022-12-19T21:57:41.134Z,27.50
2022-12-19T22:03:12.156Z,25.40
2022-12-19T22:08:11.152Z,23.90
2022-12-19T22:13:14.267Z,24.70
2022-12-19T22:18:17.671Z,25.20
2022-12-19T22:23:20.787Z,30.40
2022-12-19T22:28:23.948Z,28.30
2022-12-19T22:33:27.762Z,24.90
2022-12-19T22:38:30.931Z,24.20
2022-12-19T22:43:35.686Z,24.00
2022-12-19T22:48:39.992Z,25.70
2022-12-19T22:53:43.684Z,25.60
2022-12-19T22:58:50.369Z,23.70
2022-12-19T23:03:56.109Z,23.70
2022-12-19T23:09:00.268Z,28.50
2022-12-19T23:14:05.793Z,26.80
2022-12-19T23:19:09.637Z,25.20
2022-12-19T23:24:13.088Z,25.30
2022-12-19T23:29:16.432Z,22.80
2022-12-19T23:34:19.576Z,23.00
2022-12-19T23:39:22.726Z,22.60
2022-12-19T23:44:25.900Z,22.50
2022-12-19T23:49:29.073Z,25.10
2022-12-19T23:54:32.185Z,24.30
2022-12-19T23:59:35.386Z,23.70
